JES3072 SABE-SAME
Flight info
| Callsign | JES3072 |
|---|---|
| Flight time | 1h 34m |
| Altitude | 34000 |
| Route | PAL9 NEPIS DCT NIN UL405 PAPIR PAPI2U |
| Aircraft | A320/M-SDE3FGHIRWY/LB1 |
Departure
| Time | 2026-04-24 14:06 |
|---|---|
| Airport | Aeroparque Jorge Newbery (SABE) |
Arrival
| Time | 2026-04-24 15:41 |
|---|---|
| Airport | Governor Francisco Gabrielli International Airport (SAME) |
| Time | Latitude | Longitude | Altitude | Speed | Heading |
|---|---|---|---|---|---|
| 2026-04-24 13:52 | -34.55777 | -58.41286 | 26 ft | 0 kts | 36° |
| 2026-04-24 13:57 | -34.55789 | -58.41297 | 25 ft | 4 kts | 34° |
| 2026-04-24 13:57 | -34.55812 | -58.41311 | 27 ft | 4 kts | 359° |
| 2026-04-24 13:57 | -34.55826 | -58.41301 | 29 ft | 4 kts | 301° |
| 2026-04-24 13:58 | -34.55840 | -58.41273 | 29 ft | 4 kts | 301° |
| 2026-04-24 13:58 | -34.55854 | -58.41245 | 31 ft | 4 kts | 301° |
| 2026-04-24 13:58 | -34.55857 | -58.41240 | 30 ft | 0 kts | 301° |
| 2026-04-24 14:00 | -34.55856 | -58.41241 | 25 ft | 1 kts | 301° |
| 2026-04-24 14:00 | -34.55840 | -58.41274 | 27 ft | 6 kts | 301° |
| 2026-04-24 14:01 | -34.55812 | -58.41330 | 29 ft | 9 kts | 301° |
| 2026-04-24 14:01 | -34.55772 | -58.41402 | 28 ft | 12 kts | 304° |
| 2026-04-24 14:01 | -34.55729 | -58.41489 | 30 ft | 10 kts | 298° |
| 2026-04-24 14:01 | -34.55739 | -58.41561 | 29 ft | 7 kts | 216° |
| 2026-04-24 14:02 | -34.55782 | -58.41606 | 25 ft | 9 kts | 244° |
| 2026-04-24 14:02 | -34.55764 | -58.41684 | 26 ft | 11 kts | 297° |
| 2026-04-24 14:02 | -34.55724 | -58.41778 | 27 ft | 14 kts | 302° |
| 2026-04-24 14:02 | -34.55663 | -58.41885 | 27 ft | 17 kts | 304° |
| 2026-04-24 14:03 | -34.55600 | -58.42000 | 28 ft | 15 kts | 303° |
| 2026-04-24 14:03 | -34.55531 | -58.42114 | 29 ft | 18 kts | 308° |
| 2026-04-24 14:03 | -34.55462 | -58.42225 | 26 ft | 16 kts | 307° |
| 2026-04-24 14:03 | -34.55396 | -58.42332 | 25 ft | 12 kts | 308° |
| 2026-04-24 14:04 | -34.55363 | -58.42431 | 25 ft | 13 kts | 282° |
| 2026-04-24 14:04 | -34.55390 | -58.42508 | 27 ft | 6 kts | 211° |
| 2026-04-24 14:04 | -34.55416 | -58.42489 | 27 ft | 6 kts | 126° |
| 2026-04-24 14:04 | -34.55420 | -58.42482 | 26 ft | 0 kts | 124° |
| 2026-04-24 14:05 | -34.55426 | -58.42471 | 29 ft | 14 kts | 124° |
| 2026-04-24 14:05 | -34.55634 | -58.42098 | 27 ft | 89 kts | 124° |
| 2026-04-24 14:05 | -34.56097 | -58.41268 | 27 ft | 145 kts | 124° |
| 2026-04-24 14:06 | -34.56697 | -58.40182 | 420 ft | 159 kts | 122° |
| 2026-04-24 14:06 | -34.57305 | -58.39029 | 1041 ft | 166 kts | 119° |
| 2026-04-24 14:06 | -34.57643 | -58.37674 | 1486 ft | 178 kts | 86° |
| 2026-04-24 14:06 | -34.57263 | -58.36186 | 1868 ft | 195 kts | 54° |
| 2026-04-24 14:07 | -34.56325 | -58.34908 | 2252 ft | 212 kts | 47° |
| 2026-04-24 14:07 | -34.55314 | -58.33472 | 2663 ft | 236 kts | 50° |
| 2026-04-24 14:07 | -34.54229 | -58.31850 | 3263 ft | 254 kts | 50° |
| 2026-04-24 14:07 | -34.52991 | -58.30272 | 4151 ft | 261 kts | 36° |
| 2026-04-24 14:08 | -34.51375 | -58.29230 | 4915 ft | 268 kts | 16° |
| 2026-04-24 14:08 | -34.49528 | -58.28942 | 5858 ft | 270 kts | 356° |
| 2026-04-24 14:08 | -34.47694 | -58.29421 | 6792 ft | 272 kts | 337° |
| 2026-04-24 14:08 | -34.46107 | -58.30626 | 7674 ft | 276 kts | 317° |
| 2026-04-24 14:09 | -34.44928 | -58.32475 | 8576 ft | 281 kts | 297° |
| 2026-04-24 14:09 | -34.44364 | -58.34758 | 9449 ft | 288 kts | 276° |
| 2026-04-24 14:09 | -34.44477 | -58.37199 | 10271 ft | 294 kts | 265° |
| 2026-04-24 14:09 | -34.44743 | -58.39732 | 10643 ft | 315 kts | 264° |
| 2026-04-24 14:10 | -34.45038 | -58.42449 | 11046 ft | 331 kts | 264° |
| 2026-04-24 14:10 | -34.45343 | -58.45239 | 11742 ft | 336 kts | 264° |
| 2026-04-24 14:10 | -34.45651 | -58.48054 | 12531 ft | 338 kts | 264° |
| 2026-04-24 14:10 | -34.45958 | -58.50876 | 13338 ft | 339 kts | 264° |
| 2026-04-24 14:11 | -34.46263 | -58.53712 | 14126 ft | 340 kts | 264° |
| 2026-04-24 14:11 | -34.46569 | -58.56566 | 14824 ft | 342 kts | 264° |
| 2026-04-24 14:11 | -34.47175 | -58.62272 | 16189 ft | 345 kts | 264° |
| 2026-04-24 14:12 | -34.47480 | -58.65164 | 16858 ft | 347 kts | 264° |
| 2026-04-24 14:12 | -34.47785 | -58.68072 | 17524 ft | 349 kts | 264° |
| 2026-04-24 14:12 | -34.48092 | -58.71010 | 18206 ft | 351 kts | 264° |
| 2026-04-24 14:12 | -34.48396 | -58.73918 | 18819 ft | 353 kts | 264° |
| 2026-04-24 14:13 | -34.48709 | -58.76879 | 19413 ft | 355 kts | 264° |
| 2026-04-24 14:13 | -34.49023 | -58.79866 | 20006 ft | 358 kts | 264° |
| 2026-04-24 14:13 | -34.49334 | -58.82870 | 20596 ft | 360 kts | 264° |
| 2026-04-24 14:13 | -34.49645 | -58.85889 | 21154 ft | 363 kts | 264° |
| 2026-04-24 14:14 | -34.49957 | -58.88934 | 21694 ft | 365 kts | 264° |
| 2026-04-24 14:14 | -34.50271 | -58.91999 | 22216 ft | 368 kts | 264° |
| 2026-04-24 14:14 | -34.50910 | -58.98194 | 23271 ft | 373 kts | 264° |
| 2026-04-24 14:15 | -34.51230 | -59.01286 | 23777 ft | 375 kts | 264° |
| 2026-04-24 14:15 | -34.51554 | -59.04442 | 24227 ft | 378 kts | 264° |
| 2026-04-24 14:15 | -34.51882 | -59.07613 | 24691 ft | 379 kts | 265° |
| 2026-04-24 14:15 | -34.52207 | -59.10791 | 25155 ft | 380 kts | 265° |
| 2026-04-24 14:16 | -34.52531 | -59.13998 | 25614 ft | 382 kts | 265° |
| 2026-04-24 14:16 | -34.52858 | -59.17206 | 26074 ft | 383 kts | 265° |
| 2026-04-24 14:16 | -34.53182 | -59.20372 | 26521 ft | 385 kts | 265° |
| 2026-04-24 14:17 | -34.53832 | -59.26841 | 27396 ft | 387 kts | 265° |
| 2026-04-24 14:17 | -34.54152 | -59.30088 | 27829 ft | 389 kts | 265° |
| 2026-04-24 14:17 | -34.54801 | -59.36632 | 28707 ft | 392 kts | 265° |
| 2026-04-24 14:18 | -34.55128 | -59.39927 | 29121 ft | 394 kts | 265° |
| 2026-04-24 14:18 | -34.55459 | -59.43233 | 29563 ft | 395 kts | 265° |
| 2026-04-24 14:18 | -34.55791 | -59.46543 | 29998 ft | 397 kts | 265° |
| 2026-04-24 14:18 | -34.56123 | -59.49881 | 30388 ft | 398 kts | 265° |
| 2026-04-24 14:19 | -34.56341 | -59.52092 | 30620 ft | 399 kts | 266° |
| 2026-04-24 14:19 | -34.56776 | -59.56533 | 31106 ft | 401 kts | 266° |
| 2026-04-24 14:19 | -34.57075 | -59.59902 | 31446 ft | 401 kts | 269° |
| 2026-04-24 14:19 | -34.57064 | -59.63279 | 31877 ft | 399 kts | 273° |
| 2026-04-24 14:20 | -34.56996 | -59.66643 | 32374 ft | 397 kts | 273° |
| 2026-04-24 14:20 | -34.56932 | -59.69991 | 32897 ft | 395 kts | 273° |
| 2026-04-24 14:20 | -34.56875 | -59.73315 | 33424 ft | 393 kts | 273° |
| 2026-04-24 14:20 | -34.56821 | -59.76611 | 33947 ft | 391 kts | 273° |
| 2026-04-24 14:21 | -34.56763 | -59.79903 | 34119 ft | 389 kts | 273° |
| 2026-04-24 14:21 | -34.56702 | -59.83145 | 34148 ft | 381 kts | 273° |
| 2026-04-24 14:21 | -34.56576 | -59.89531 | 34167 ft | 377 kts | 273° |
| 2026-04-24 14:22 | -34.56449 | -59.95902 | 34149 ft | 378 kts | 273° |
| 2026-04-24 14:23 | -34.56256 | -60.05475 | 34149 ft | 378 kts | 273° |
| 2026-04-24 14:23 | -34.56121 | -60.11817 | 34148 ft | 379 kts | 273° |
| 2026-04-24 14:24 | -34.55984 | -60.18203 | 34158 ft | 379 kts | 273° |
| 2026-04-24 14:24 | -34.55840 | -60.24602 | 34155 ft | 379 kts | 273° |
| 2026-04-24 14:25 | -34.55692 | -60.30996 | 34136 ft | 379 kts | 273° |
| 2026-04-24 14:25 | -34.55544 | -60.37382 | 34146 ft | 379 kts | 273° |
| 2026-04-24 14:26 | -34.55395 | -60.43770 | 34155 ft | 378 kts | 273° |
| 2026-04-24 14:26 | -34.55238 | -60.50161 | 34162 ft | 379 kts | 273° |
| 2026-04-24 14:27 | -34.55087 | -60.56511 | 34158 ft | 379 kts | 273° |
| 2026-04-24 14:27 | -34.54926 | -60.62905 | 34153 ft | 379 kts | 273° |
| 2026-04-24 14:28 | -34.54759 | -60.69295 | 34149 ft | 379 kts | 273° |
| 2026-04-24 14:28 | -34.54592 | -60.75690 | 34166 ft | 379 kts | 273° |
| 2026-04-24 14:29 | -34.54421 | -60.82098 | 34155 ft | 380 kts | 273° |
| 2026-04-24 14:29 | -34.54246 | -60.88503 | 34147 ft | 380 kts | 273° |
| 2026-04-24 14:30 | -34.54020 | -60.93829 | 34153 ft | 380 kts | 279° |
| 2026-04-24 14:30 | -34.52912 | -61.01193 | 34120 ft | 380 kts | 281° |
| 2026-04-24 14:31 | -34.51947 | -61.07491 | 34138 ft | 380 kts | 281° |
| 2026-04-24 14:31 | -34.50970 | -61.13785 | 34139 ft | 380 kts | 281° |
| 2026-04-24 14:32 | -34.49985 | -61.20075 | 34144 ft | 380 kts | 281° |
| 2026-04-24 14:32 | -34.49007 | -61.26365 | 34140 ft | 380 kts | 281° |
| 2026-04-24 14:33 | -34.48025 | -61.32636 | 34138 ft | 380 kts | 281° |
| 2026-04-24 14:33 | -34.47034 | -61.38926 | 34149 ft | 380 kts | 281° |
| 2026-04-24 14:34 | -34.46043 | -61.45225 | 34146 ft | 381 kts | 281° |
| 2026-04-24 14:34 | -34.45050 | -61.51533 | 34148 ft | 381 kts | 281° |
| 2026-04-24 14:35 | -34.44050 | -61.57835 | 34120 ft | 381 kts | 281° |
| 2026-04-24 14:35 | -34.43036 | -61.64130 | 34134 ft | 381 kts | 281° |
| 2026-04-24 14:36 | -34.42022 | -61.70417 | 34145 ft | 380 kts | 281° |
| 2026-04-24 14:36 | -34.41010 | -61.76702 | 34148 ft | 380 kts | 281° |
| 2026-04-24 14:37 | -34.40000 | -61.82988 | 34144 ft | 380 kts | 281° |
| 2026-04-24 14:37 | -34.38982 | -61.89216 | 34145 ft | 380 kts | 281° |
| 2026-04-24 14:38 | -34.37954 | -61.95484 | 34151 ft | 380 kts | 281° |
| 2026-04-24 14:38 | -34.36932 | -62.01753 | 34146 ft | 380 kts | 281° |
| 2026-04-24 14:39 | -34.35907 | -62.08032 | 34148 ft | 380 kts | 281° |
| 2026-04-24 14:39 | -34.34879 | -62.14308 | 34125 ft | 380 kts | 281° |
| 2026-04-24 14:40 | -34.33839 | -62.20580 | 34134 ft | 380 kts | 281° |
| 2026-04-24 14:40 | -34.32794 | -62.26837 | 34148 ft | 380 kts | 281° |
| 2026-04-24 14:41 | -34.31753 | -62.33100 | 34143 ft | 380 kts | 281° |
| 2026-04-24 14:41 | -34.30710 | -62.39325 | 34140 ft | 380 kts | 281° |
| 2026-04-24 14:42 | -34.29836 | -62.44573 | 34143 ft | 380 kts | 281° |
| 2026-04-24 14:42 | -34.28787 | -62.50851 | 34143 ft | 380 kts | 281° |
| 2026-04-24 14:43 | -34.27735 | -62.57073 | 34144 ft | 381 kts | 281° |
| 2026-04-24 14:43 | -34.26675 | -62.63355 | 34139 ft | 381 kts | 281° |
| 2026-04-24 14:44 | -34.25619 | -62.69642 | 34116 ft | 381 kts | 281° |
| 2026-04-24 14:44 | -34.24555 | -62.75916 | 34130 ft | 381 kts | 281° |
| 2026-04-24 14:45 | -34.23478 | -62.82182 | 34130 ft | 381 kts | 282° |
| 2026-04-24 14:45 | -34.22411 | -62.88408 | 34142 ft | 381 kts | 281° |
| 2026-04-24 14:46 | -34.21337 | -62.94680 | 34142 ft | 381 kts | 281° |
| 2026-04-24 14:46 | -34.20255 | -63.00946 | 34136 ft | 381 kts | 281° |
| 2026-04-24 14:47 | -34.19173 | -63.07226 | 34135 ft | 381 kts | 281° |
| 2026-04-24 14:47 | -34.18086 | -63.13501 | 34143 ft | 381 kts | 281° |
| 2026-04-24 14:48 | -34.16991 | -63.19769 | 34139 ft | 382 kts | 281° |
| 2026-04-24 14:48 | -34.15901 | -63.26004 | 34111 ft | 382 kts | 281° |
| 2026-04-24 14:49 | -34.14809 | -63.32271 | 34122 ft | 381 kts | 281° |
| 2026-04-24 14:49 | -34.13699 | -63.38533 | 34127 ft | 381 kts | 282° |
| 2026-04-24 14:50 | -34.12484 | -63.44766 | 34148 ft | 381 kts | 283° |
| 2026-04-24 14:50 | -34.11225 | -63.50993 | 34134 ft | 382 kts | 283° |
| 2026-04-24 14:51 | -34.09975 | -63.57220 | 34134 ft | 382 kts | 283° |
| 2026-04-24 14:51 | -34.08741 | -63.63454 | 34133 ft | 382 kts | 282° |
| 2026-04-24 14:52 | -34.07507 | -63.69692 | 34126 ft | 382 kts | 283° |
| 2026-04-24 14:52 | -34.06274 | -63.75882 | 34139 ft | 382 kts | 282° |
| 2026-04-24 14:53 | -34.05026 | -63.82123 | 34109 ft | 383 kts | 282° |
| 2026-04-24 14:53 | -34.03782 | -63.88363 | 34121 ft | 382 kts | 282° |
| 2026-04-24 14:54 | -34.02535 | -63.94599 | 34123 ft | 382 kts | 282° |
| 2026-04-24 14:54 | -34.01287 | -64.00839 | 34129 ft | 382 kts | 282° |
| 2026-04-24 14:55 | -34.00035 | -64.07065 | 34140 ft | 382 kts | 282° |
| 2026-04-24 14:55 | -33.98776 | -64.13289 | 34127 ft | 383 kts | 282° |
| 2026-04-24 14:56 | -33.97522 | -64.19485 | 34129 ft | 383 kts | 282° |
| 2026-04-24 14:56 | -33.96262 | -64.25713 | 34133 ft | 383 kts | 282° |
| 2026-04-24 14:57 | -33.95000 | -64.31941 | 34122 ft | 383 kts | 282° |
| 2026-04-24 14:57 | -33.93728 | -64.38178 | 34115 ft | 383 kts | 282° |
| 2026-04-24 14:58 | -33.92455 | -64.44396 | 34116 ft | 383 kts | 282° |
| 2026-04-24 14:58 | -33.91190 | -64.50579 | 34123 ft | 383 kts | 282° |
| 2026-04-24 14:59 | -33.89915 | -64.56800 | 34123 ft | 383 kts | 282° |
| 2026-04-24 14:59 | -33.88633 | -64.63022 | 34123 ft | 383 kts | 282° |
| 2026-04-24 15:00 | -33.87344 | -64.69242 | 34120 ft | 383 kts | 282° |
| 2026-04-24 15:00 | -33.86059 | -64.75451 | 34123 ft | 382 kts | 282° |
| 2026-04-24 15:01 | -33.84770 | -64.81660 | 34125 ft | 382 kts | 282° |
| 2026-04-24 15:01 | -33.83476 | -64.87861 | 34125 ft | 382 kts | 283° |
| 2026-04-24 15:02 | -33.82176 | -64.94069 | 34120 ft | 382 kts | 283° |
| 2026-04-24 15:02 | -33.80874 | -65.00266 | 34123 ft | 382 kts | 282° |
| 2026-04-24 15:03 | -33.79570 | -65.06468 | 34112 ft | 383 kts | 282° |
| 2026-04-24 15:03 | -33.78271 | -65.12629 | 34108 ft | 383 kts | 282° |
| 2026-04-24 15:04 | -33.76963 | -65.18831 | 34111 ft | 383 kts | 283° |
| 2026-04-24 15:04 | -33.75649 | -65.25029 | 34118 ft | 383 kts | 283° |
| 2026-04-24 15:05 | -33.74332 | -65.31226 | 34133 ft | 383 kts | 282° |
| 2026-04-24 15:05 | -33.73011 | -65.37424 | 34131 ft | 383 kts | 282° |
| 2026-04-24 15:06 | -33.71626 | -65.43600 | 34127 ft | 383 kts | 284° |
| 2026-04-24 15:06 | -33.70164 | -65.49715 | 34108 ft | 383 kts | 284° |
| 2026-04-24 15:07 | -33.68697 | -65.55858 | 34114 ft | 383 kts | 284° |
| 2026-04-24 15:07 | -33.67244 | -65.62000 | 34123 ft | 382 kts | 284° |
| 2026-04-24 15:08 | -33.65793 | -65.68139 | 34116 ft | 382 kts | 284° |
| 2026-04-24 15:08 | -33.64341 | -65.74270 | 34116 ft | 382 kts | 284° |
| 2026-04-24 15:09 | -33.62885 | -65.80409 | 34109 ft | 382 kts | 284° |
| 2026-04-24 15:09 | -33.61436 | -65.86491 | 34116 ft | 382 kts | 284° |
| 2026-04-24 15:10 | -33.59973 | -65.92611 | 34110 ft | 381 kts | 284° |
| 2026-04-24 15:10 | -33.58506 | -65.98734 | 34121 ft | 381 kts | 284° |
| 2026-04-24 15:11 | -33.57050 | -66.04822 | 34100 ft | 380 kts | 284° |
| 2026-04-24 15:11 | -33.55582 | -66.10910 | 34107 ft | 380 kts | 284° |
| 2026-04-24 15:12 | -33.54112 | -66.16995 | 34110 ft | 380 kts | 284° |
| 2026-04-24 15:12 | -33.51915 | -66.26132 | 34126 ft | 380 kts | 284° |
| 2026-04-24 15:13 | -33.50441 | -66.32203 | 34127 ft | 380 kts | 284° |
| 2026-04-24 15:13 | -33.48964 | -66.38231 | 34125 ft | 379 kts | 284° |
| 2026-04-24 15:14 | -33.47214 | -66.44201 | 34121 ft | 380 kts | 288° |
| 2026-04-24 15:14 | -33.45269 | -66.50093 | 34120 ft | 380 kts | 289° |
| 2026-04-24 15:15 | -33.43340 | -66.55986 | 34093 ft | 380 kts | 288° |
| 2026-04-24 15:15 | -33.41514 | -66.61902 | 34110 ft | 378 kts | 285° |
| 2026-04-24 15:16 | -33.40028 | -66.67921 | 34110 ft | 376 kts | 283° |
| 2026-04-24 15:16 | -33.38643 | -66.73957 | 34109 ft | 376 kts | 283° |
| 2026-04-24 15:17 | -33.37204 | -66.79965 | 34105 ft | 376 kts | 284° |
| 2026-04-24 15:17 | -33.35730 | -66.85924 | 34105 ft | 376 kts | 284° |
| 2026-04-24 15:18 | -33.34236 | -66.91912 | 34112 ft | 375 kts | 284° |
| 2026-04-24 15:18 | -33.32748 | -66.97895 | 34114 ft | 375 kts | 284° |
| 2026-04-24 15:19 | -33.31264 | -67.03868 | 34114 ft | 374 kts | 284° |
| 2026-04-24 15:19 | -33.29777 | -67.09830 | 34049 ft | 374 kts | 284° |
| 2026-04-24 15:20 | -33.29032 | -67.12809 | 33552 ft | 372 kts | 284° |
| 2026-04-24 15:20 | -33.28293 | -67.15749 | 33131 ft | 367 kts | 284° |
| 2026-04-24 15:20 | -33.27562 | -67.18644 | 32702 ft | 362 kts | 284° |
| 2026-04-24 15:20 | -33.26839 | -67.21507 | 32270 ft | 357 kts | 284° |
| 2026-04-24 15:21 | -33.26130 | -67.24341 | 31790 ft | 355 kts | 284° |
| 2026-04-24 15:21 | -33.25419 | -67.27157 | 31301 ft | 353 kts | 284° |
| 2026-04-24 15:21 | -33.24664 | -67.29945 | 30822 ft | 352 kts | 285° |
| 2026-04-24 15:21 | -33.23886 | -67.32672 | 30353 ft | 351 kts | 286° |
| 2026-04-24 15:22 | -33.23086 | -67.35424 | 29835 ft | 350 kts | 286° |
| 2026-04-24 15:22 | -33.22292 | -67.38163 | 29365 ft | 347 kts | 286° |
| 2026-04-24 15:22 | -33.21509 | -67.40881 | 28916 ft | 345 kts | 286° |
| 2026-04-24 15:23 | -33.19968 | -67.46266 | 28044 ft | 341 kts | 286° |
| 2026-04-24 15:23 | -33.18452 | -67.51584 | 27203 ft | 336 kts | 286° |
| 2026-04-24 15:23 | -33.17704 | -67.54210 | 26797 ft | 333 kts | 286° |
| 2026-04-24 15:24 | -33.15487 | -67.61972 | 25603 ft | 325 kts | 286° |
| 2026-04-24 15:25 | -33.14276 | -67.66197 | 24949 ft | 322 kts | 286° |
| 2026-04-24 15:25 | -33.12586 | -67.72083 | 23996 ft | 320 kts | 286° |
| 2026-04-24 15:26 | -33.11372 | -67.79764 | 22696 ft | 313 kts | 273° |
| 2026-04-24 15:27 | -33.10828 | -67.87474 | 21439 ft | 309 kts | 274° |
| 2026-04-24 15:27 | -33.10271 | -67.95112 | 20170 ft | 308 kts | 274° |
| 2026-04-24 15:28 | -33.09543 | -68.05258 | 18487 ft | 309 kts | 274° |
| 2026-04-24 15:29 | -33.09171 | -68.10359 | 17597 ft | 308 kts | 274° |
| 2026-04-24 15:30 | -33.08614 | -68.17974 | 16343 ft | 306 kts | 274° |
| 2026-04-24 15:31 | -33.07917 | -68.27266 | 14834 ft | 308 kts | 275° |
| 2026-04-24 15:32 | -33.07091 | -68.38372 | 13022 ft | 310 kts | 275° |
| 2026-04-24 15:33 | -33.06319 | -68.48563 | 11407 ft | 309 kts | 276° |
| 2026-04-24 15:33 | -33.05732 | -68.56198 | 10212 ft | 308 kts | 275° |
| 2026-04-24 15:34 | -33.05414 | -68.60323 | 9917 ft | 295 kts | 275° |
| 2026-04-24 15:35 | -33.05174 | -68.67308 | 9526 ft | 268 kts | 270° |
| 2026-04-24 15:35 | -33.05171 | -68.71630 | 8825 ft | 257 kts | 270° |
| 2026-04-24 15:35 | -33.05166 | -68.73765 | 8221 ft | 258 kts | 270° |
| 2026-04-24 15:36 | -33.05155 | -68.75916 | 7651 ft | 258 kts | 270° |
| 2026-04-24 15:36 | -33.03691 | -68.79469 | 6714 ft | 252 kts | 333° |
| 2026-04-24 15:36 | -33.01995 | -68.79963 | 6197 ft | 252 kts | 355° |
| 2026-04-24 15:37 | -33.00232 | -68.79980 | 5676 ft | 252 kts | 2° |
| 2026-04-24 15:37 | -32.98499 | -68.79854 | 5213 ft | 247 kts | 4° |
| 2026-04-24 15:37 | -32.96822 | -68.79695 | 4775 ft | 235 kts | 5° |
| 2026-04-24 15:37 | -32.95258 | -68.79525 | 4463 ft | 217 kts | 4° |
| 2026-04-24 15:38 | -32.93785 | -68.79449 | 4186 ft | 205 kts | 1° |
| 2026-04-24 15:38 | -32.92433 | -68.79425 | 3905 ft | 188 kts | 1° |
| 2026-04-24 15:38 | -32.91210 | -68.79408 | 3700 ft | 163 kts | 1° |
| 2026-04-24 15:38 | -32.90138 | -68.79392 | 3480 ft | 148 kts | 1° |
| 2026-04-24 15:39 | -32.89125 | -68.79382 | 3324 ft | 144 kts | 1° |
| 2026-04-24 15:39 | -32.88132 | -68.79373 | 3110 ft | 142 kts | 2° |
| 2026-04-24 15:39 | -32.87156 | -68.79358 | 2919 ft | 140 kts | 2° |
| 2026-04-24 15:39 | -32.86179 | -68.79342 | 2742 ft | 140 kts | 2° |
| 2026-04-24 15:40 | -32.85208 | -68.79332 | 2552 ft | 140 kts | 2° |
| 2026-04-24 15:40 | -32.84240 | -68.79313 | 2384 ft | 138 kts | 2° |
| 2026-04-24 15:40 | -32.83380 | -68.79295 | 2357 ft | 104 kts | 1° |
| 2026-04-24 15:40 | -32.82814 | -68.79283 | 2361 ft | 64 kts | 1° |
| 2026-04-24 15:41 | -32.82445 | -68.79273 | 2362 ft | 48 kts | 1° |
| 2026-04-24 15:41 | -32.82150 | -68.79269 | 2358 ft | 31 kts | 1° |
| 2026-04-24 15:41 | -32.81964 | -68.79297 | 2358 ft | 23 kts | 322° |
| 2026-04-24 15:41 | -32.81932 | -68.79418 | 2359 ft | 15 kts | 267° |
| 2026-04-24 15:42 | -32.81977 | -68.79489 | 2359 ft | 12 kts | 187° |
| 2026-04-24 15:42 | -32.82060 | -68.79492 | 2359 ft | 12 kts | 181° |
| 2026-04-24 15:42 | -32.82151 | -68.79494 | 2360 ft | 14 kts | 180° |
| 2026-04-24 15:42 | -32.82258 | -68.79496 | 2360 ft | 17 kts | 181° |
| 2026-04-24 15:43 | -32.82362 | -68.79498 | 2357 ft | 13 kts | 180° |
| 2026-04-24 15:43 | -32.82464 | -68.79501 | 2357 ft | 16 kts | 181° |
| 2026-04-24 15:43 | -32.82569 | -68.79503 | 2357 ft | 15 kts | 181° |
| 2026-04-24 15:43 | -32.82658 | -68.79536 | 2359 ft | 14 kts | 244° |
| 2026-04-24 15:44 | -32.82673 | -68.79635 | 2358 ft | 9 kts | 271° |
| 2026-04-24 15:44 | -32.82683 | -68.79705 | 2360 ft | 6 kts | 207° |
| 2026-04-24 15:44 | -32.82733 | -68.79707 | 2360 ft | 8 kts | 180° |
| 2026-04-24 15:44 | -32.82761 | -68.79736 | 2360 ft | 6 kts | 264° |
| 2026-04-24 15:45 | -32.82763 | -68.79773 | 2360 ft | 2 kts | 264° |
| 2026-04-24 15:45 | -32.82763 | -68.79774 | 2360 ft | 0 kts | 264° |
| 2026-04-24 15:45 | -32.82764 | -68.79779 | 2360 ft | 0 kts | 264° |
| 2026-04-24 16:21 | -32.82762 | -68.79760 | 2346 ft | 4 kts | 262° |
| 2026-04-24 16:22 | -32.82756 | -68.79729 | 2347 ft | 4 kts | 245° |
| 2026-04-24 16:22 | -32.82738 | -68.79707 | 2349 ft | 0 kts | 181° |
| 2026-04-24 16:25 | -32.82752 | -68.79708 | 2351 ft | 5 kts | 181° |
| 2026-04-24 16:26 | -32.82856 | -68.79710 | 2351 ft | 11 kts | 181° |
| 2026-04-24 16:26 | -32.82918 | -68.79656 | 2351 ft | 13 kts | 122° |
| 2026-04-24 16:26 | -32.83069 | -68.79513 | 2351 ft | 16 kts | 178° |
| 2026-04-24 16:27 | -32.83182 | -68.79515 | 2351 ft | 17 kts | 181° |
| 2026-04-24 16:27 | -32.83307 | -68.79517 | 2351 ft | 19 kts | 181° |
| 2026-04-24 16:27 | -32.83441 | -68.79521 | 2351 ft | 20 kts | 181° |
| 2026-04-24 16:27 | -32.83585 | -68.79522 | 2351 ft | 21 kts | 181° |
| 2026-04-24 16:28 | -32.83739 | -68.79526 | 2351 ft | 23 kts | 180° |
| 2026-04-24 16:28 | -32.83901 | -68.79530 | 2351 ft | 24 kts | 181° |
| 2026-04-24 16:28 | -32.84158 | -68.79462 | 2351 ft | 19 kts | 161° |
| 2026-04-24 16:29 | -32.84280 | -68.79400 | 2354 ft | 18 kts | 148° |
| 2026-04-24 16:29 | -32.84347 | -68.79326 | 2355 ft | 10 kts | 84° |
| 2026-04-24 16:29 | -32.84012 | -68.79308 | 2355 ft | 72 kts | 1° |
| 2026-04-24 16:30 | -32.82278 | -68.79269 | 2403 ft | 163 kts | 2° |
| 2026-04-24 16:30 | -32.81146 | -68.79238 | 2944 ft | 163 kts | 2° |
| 2026-04-24 16:30 | -32.79993 | -68.79223 | 3513 ft | 169 kts | 1° |
| 2026-04-24 16:31 | -32.78769 | -68.79216 | 3867 ft | 185 kts | 1° |
| 2026-04-24 16:31 | -32.77421 | -68.79169 | 4195 ft | 202 kts | 7° |
| 2026-04-24 16:31 | -32.76103 | -68.78486 | 4514 ft | 221 kts | 45° |
| 2026-04-24 16:31 | -32.75338 | -68.76816 | 4819 ft | 245 kts | 72° |
| 2026-04-24 16:32 | -32.74935 | -68.74774 | 5390 ft | 258 kts | 78° |
| 2026-04-24 16:32 | -32.74597 | -68.72671 | 6282 ft | 262 kts | 79° |
| 2026-04-24 16:32 | -32.74244 | -68.70511 | 6956 ft | 271 kts | 78° |
| 2026-04-24 16:32 | -32.73873 | -68.68319 | 7712 ft | 276 kts | 78° |
| 2026-04-24 16:33 | -32.73488 | -68.66061 | 8488 ft | 280 kts | 78° |
| 2026-04-24 16:33 | -32.73133 | -68.63766 | 9252 ft | 285 kts | 84° |
| 2026-04-24 16:33 | -32.73182 | -68.61395 | 9891 ft | 295 kts | 99° |
| 2026-04-24 16:33 | -32.73650 | -68.58973 | 10383 ft | 308 kts | 104° |
| 2026-04-24 16:34 | -32.74173 | -68.56411 | 10578 ft | 331 kts | 104° |
| 2026-04-24 16:34 | -32.74722 | -68.53706 | 10817 ft | 350 kts | 104° |
| 2026-04-24 16:34 | -32.75300 | -68.50828 | 11388 ft | 356 kts | 103° |
| 2026-04-24 16:34 | -32.75863 | -68.47984 | 12043 ft | 360 kts | 103° |
| 2026-04-24 16:35 | -32.76439 | -68.45069 | 12697 ft | 364 kts | 103° |
| 2026-04-24 16:35 | -32.77021 | -68.42130 | 13332 ft | 367 kts | 103° |
| 2026-04-24 16:35 | -32.77606 | -68.39163 | 13961 ft | 370 kts | 103° |
| 2026-04-24 16:35 | -32.78195 | -68.36169 | 14509 ft | 374 kts | 103° |
| 2026-04-24 16:36 | -32.78792 | -68.33137 | 15040 ft | 379 kts | 104° |
| 2026-04-24 16:36 | -32.79397 | -68.30066 | 15565 ft | 383 kts | 104° |
| 2026-04-24 16:36 | -32.80006 | -68.26974 | 16136 ft | 386 kts | 104° |
| 2026-04-24 16:36 | -32.80620 | -68.23852 | 16654 ft | 390 kts | 104° |
| 2026-04-24 16:37 | -32.81239 | -68.20699 | 17169 ft | 394 kts | 104° |
| 2026-04-24 16:37 | -32.81864 | -68.17508 | 17695 ft | 398 kts | 104° |
| 2026-04-24 16:37 | -32.82492 | -68.14293 | 18286 ft | 400 kts | 104° |
| 2026-04-24 16:37 | -32.83124 | -68.11057 | 18767 ft | 404 kts | 104° |
| 2026-04-24 16:38 | -32.83752 | -68.07833 | 19222 ft | 408 kts | 104° |
| 2026-04-24 16:38 | -32.84392 | -68.04536 | 19678 ft | 412 kts | 104° |
| 2026-04-24 16:38 | -32.85037 | -68.01199 | 20129 ft | 416 kts | 104° |
| 2026-04-24 16:38 | -32.85687 | -67.97828 | 20568 ft | 420 kts | 104° |
| 2026-04-24 16:39 | -32.86343 | -67.94426 | 21004 ft | 424 kts | 104° |
| 2026-04-24 16:39 | -32.87008 | -67.90993 | 21415 ft | 428 kts | 104° |
| 2026-04-24 16:39 | -32.87679 | -67.87530 | 21842 ft | 432 kts | 104° |
| 2026-04-24 16:39 | -32.88353 | -67.84025 | 22253 ft | 436 kts | 104° |
| 2026-04-24 16:40 | -32.89031 | -67.80495 | 22656 ft | 439 kts | 104° |
| 2026-04-24 16:40 | -32.89713 | -67.76936 | 23058 ft | 443 kts | 104° |
| 2026-04-24 16:40 | -32.90400 | -67.73348 | 23457 ft | 447 kts | 104° |
| 2026-04-24 16:40 | -32.91094 | -67.69727 | 23807 ft | 451 kts | 104° |
| 2026-04-24 16:41 | -32.91799 | -67.66080 | 24152 ft | 453 kts | 104° |
| 2026-04-24 16:41 | -32.92514 | -67.62412 | 24524 ft | 456 kts | 104° |
| 2026-04-24 16:41 | -32.93237 | -67.58728 | 24879 ft | 458 kts | 105° |
| 2026-04-24 16:41 | -32.93966 | -67.55023 | 25232 ft | 461 kts | 105° |
| 2026-04-24 16:42 | -32.94695 | -67.51298 | 25620 ft | 462 kts | 105° |
| 2026-04-24 16:42 | -32.95424 | -67.47563 | 25998 ft | 464 kts | 105° |
| 2026-04-24 16:42 | -32.96143 | -67.43863 | 26326 ft | 466 kts | 105° |
| 2026-04-24 16:42 | -32.96872 | -67.40094 | 26650 ft | 469 kts | 105° |
| 2026-04-24 16:43 | -32.97604 | -67.36291 | 26973 ft | 472 kts | 105° |
| 2026-04-24 16:43 | -32.98339 | -67.32467 | 27289 ft | 475 kts | 105° |
| 2026-04-24 16:43 | -32.99078 | -67.28627 | 27610 ft | 478 kts | 105° |
| 2026-04-24 16:43 | -32.99824 | -67.24753 | 27931 ft | 481 kts | 105° |
| 2026-04-24 16:44 | -33.00570 | -67.20864 | 28260 ft | 484 kts | 105° |
| 2026-04-24 16:44 | -33.01320 | -67.16942 | 28552 ft | 487 kts | 104° |
| 2026-04-24 16:44 | -33.02071 | -67.12996 | 28858 ft | 490 kts | 104° |
| 2026-04-24 16:44 | -33.02827 | -67.09016 | 29165 ft | 493 kts | 104° |
| 2026-04-24 16:45 | -33.03587 | -67.05012 | 29466 ft | 496 kts | 105° |
| 2026-04-24 16:45 | -33.04352 | -67.00994 | 29845 ft | 498 kts | 105° |
| 2026-04-24 16:45 | -33.05116 | -66.96976 | 30272 ft | 498 kts | 104° |
| 2026-04-24 16:45 | -33.05882 | -66.92946 | 30616 ft | 499 kts | 104° |
| 2026-04-24 16:46 | -33.06644 | -66.88911 | 30963 ft | 499 kts | 104° |
| 2026-04-24 16:46 | -33.07393 | -66.84924 | 31317 ft | 500 kts | 104° |
| 2026-04-24 16:46 | -33.08163 | -66.80831 | 31677 ft | 500 kts | 104° |
| 2026-04-24 16:46 | -33.08917 | -66.76827 | 32025 ft | 501 kts | 104° |
| 2026-04-24 16:47 | -33.09682 | -66.72776 | 32374 ft | 501 kts | 104° |
| 2026-04-24 16:47 | -33.10451 | -66.68714 | 32718 ft | 502 kts | 105° |
| 2026-04-24 16:47 | -33.11221 | -66.64639 | 33061 ft | 503 kts | 104° |
| 2026-04-24 16:47 | -33.11988 | -66.60568 | 33409 ft | 504 kts | 104° |
| 2026-04-24 16:48 | -33.12758 | -66.56477 | 33745 ft | 505 kts | 104° |
| 2026-04-24 16:48 | -33.13528 | -66.52389 | 34127 ft | 505 kts | 104° |
| 2026-04-24 16:48 | -33.14297 | -66.48294 | 34407 ft | 506 kts | 104° |
| 2026-04-24 16:48 | -33.15066 | -66.44189 | 34678 ft | 507 kts | 104° |
| 2026-04-24 16:49 | -33.15823 | -66.40141 | 34932 ft | 508 kts | 104° |
| 2026-04-24 16:49 | -33.16590 | -66.36019 | 35217 ft | 509 kts | 104° |
| 2026-04-24 16:49 | -33.17354 | -66.31893 | 35505 ft | 509 kts | 104° |
| 2026-04-24 16:49 | -33.18115 | -66.27766 | 35776 ft | 509 kts | 104° |
| 2026-04-24 16:50 | -33.18628 | -66.24978 | 35947 ft | 510 kts | 104° |
| 2026-04-24 16:50 | -33.19634 | -66.19498 | 36267 ft | 510 kts | 104° |
| 2026-04-24 16:50 | -33.20393 | -66.15351 | 36478 ft | 511 kts | 104° |
| 2026-04-24 16:50 | -33.21156 | -66.11192 | 36691 ft | 512 kts | 104° |
| 2026-04-24 16:51 | -33.21920 | -66.07035 | 36892 ft | 513 kts | 104° |
| 2026-04-24 16:51 | -33.22686 | -66.02865 | 37036 ft | 515 kts | 104° |
| 2026-04-24 16:51 | -33.24229 | -65.94425 | 37049 ft | 524 kts | 104° |
| 2026-04-24 16:52 | -33.25789 | -65.85892 | 37045 ft | 527 kts | 104° |
| 2026-04-24 16:52 | -33.27346 | -65.77318 | 37053 ft | 528 kts | 104° |
| 2026-04-24 16:53 | -33.28880 | -65.68800 | 37040 ft | 526 kts | 104° |
| 2026-04-24 16:53 | -33.30410 | -65.60248 | 37037 ft | 525 kts | 103° |
| 2026-04-24 16:54 | -33.31935 | -65.51711 | 37037 ft | 526 kts | 103° |
| 2026-04-24 16:54 | -33.33464 | -65.43161 | 37049 ft | 526 kts | 103° |
| 2026-04-24 16:55 | -33.34986 | -65.34601 | 37053 ft | 527 kts | 103° |
| 2026-04-24 16:55 | -33.36502 | -65.26021 | 37054 ft | 527 kts | 103° |
| 2026-04-24 16:56 | -33.38003 | -65.17480 | 37060 ft | 528 kts | 103° |
| 2026-04-24 16:56 | -33.39506 | -65.08873 | 37077 ft | 528 kts | 103° |
| 2026-04-24 16:57 | -33.41002 | -65.00297 | 37065 ft | 526 kts | 103° |
| 2026-04-24 16:57 | -33.42500 | -64.91726 | 37059 ft | 526 kts | 103° |
| 2026-04-24 16:58 | -33.43987 | -64.83155 | 37053 ft | 527 kts | 103° |
| 2026-04-24 16:58 | -33.45464 | -64.74564 | 37050 ft | 527 kts | 103° |
| 2026-04-24 16:59 | -33.46940 | -64.65952 | 37054 ft | 527 kts | 103° |
| 2026-04-24 17:00 | -33.49127 | -64.53091 | 37059 ft | 528 kts | 103° |
| 2026-04-24 17:00 | -33.51225 | -64.40138 | 37078 ft | 526 kts | 102° |
| 2026-04-24 17:01 | -33.53275 | -64.27225 | 37057 ft | 526 kts | 102° |
| 2026-04-24 17:02 | -33.55333 | -64.14366 | 37056 ft | 526 kts | 102° |
| 2026-04-24 17:02 | -33.56698 | -64.05756 | 37060 ft | 526 kts | 102° |
| 2026-04-24 17:03 | -33.58731 | -63.92815 | 37051 ft | 526 kts | 102° |
| 2026-04-24 17:04 | -33.60080 | -63.84177 | 37057 ft | 527 kts | 102° |
| 2026-04-24 17:04 | -33.62104 | -63.71214 | 37043 ft | 527 kts | 101° |
| 2026-04-24 17:05 | -33.63444 | -63.62560 | 37049 ft | 528 kts | 101° |
| 2026-04-24 17:06 | -33.65431 | -63.49610 | 37057 ft | 528 kts | 101° |
| 2026-04-24 17:06 | -33.67418 | -63.36598 | 37042 ft | 529 kts | 101° |
| 2026-04-24 17:07 | -33.68739 | -63.27893 | 37045 ft | 529 kts | 101° |